Kezdőlap
METAR-TAF:

METAR-TAF

Repülőterek :

Vlagyivosztoki nemzetközi repülőtér

Vlagyivosztok, Oroszország

földrajzi szélesség: 43-07N, földrajzi hosszúság: 131-56E, magasság: 184 m

Jelenlegi meteorológiai megfigyelések

A jelentés 11 perccel ezelõtt készült, 14:00 UTC
Északnyugati szél 2 kt
Hőmérséklet -8°C
Páratartalom 79%
Légköri nyomás 1024 hPa
Látótávolság 10 km, vagy több

METAR: UHWW 161400Z 31001MPS 9999 NSC M08/M11 Q1024 R07R/0///70 NOSIG RMK QFE767

Idő: 00:11 (14:11 UTC)

Előrejelzés

A jelentés 3 órával és 21 perccel ezelõtt készült, 10:50 UTC
Az előrejelzés 16-én 12 óra UTC és 17-én 12 óra UTC között érvényes
Észak-északkeleti szél 6 kt
Látótávolság 10 km, vagy több
17-én 00 óra UTC és 17-én 02 óra UTC között fokozatosan kialakuló
Nyugat-délnyugati szél 6 kt
Szórványos felhőzet 3000 lábon

TAF: UHWW 161050Z 1612/1712 02003MPS 9999 NSC BECMG 1700/1702 25003MPS SCT030

Meteorológiai megfigyelések és előrejelzések több, mint 4000 repülőtéren (METAR és TAF jelentéseket).

A térképen piros és sárga pontok jelzik az elérhető meteorológiai állomásokat.

Mozgassa az egeret a pont fölött, hogy megjelenjen az állomás neve.

Azután kattintson az időjárási megfigyelések és előrejelzések megtekintéséhez.

A térkép megváltoztatása: kattintson a fekete keresztel jelölt zöld gombra ráközelítéshez, a vonallal jelölt zöld gombra távolításhoz, vagy a zöld nyilakra a szomszédos térképek eléréséhez.


METAR-TAF: